sensor_id;sensor_type;location;lat;lon;timestamp;temperature;humidity
4433;DHT22;2229;48.708;9.706;2022-11-21T00:00:18;5.80;99.90
4433;DHT22;2229;48.708;9.706;2022-11-21T00:02:47;5.70;99.90
4433;DHT22;2229;48.708;9.706;2022-11-21T00:05:14;5.80;99.90
4433;DHT22;2229;48.708;9.706;2022-11-21T00:07:41;5.80;99.90
4433;DHT22;2229;48.708;9.706;2022-11-21T00:10:09;5.80;99.90
4433;DHT22;2229;48.708;9.706;2022-11-21T00:12:36;5.80;99.90
4433;DHT22;2229;48.708;9.706;2022-11-21T00:15:06;5.70;99.90
4433;DHT22;2229;48.708;9.706;2022-11-21T00:17:33;5.70;99.90
4433;DHT22;2229;48.708;9.706;2022-11-21T00:20:10;5.70;99.90
4433;DHT22;2229;48.708;9.706;2022-11-21T00:22:37;5.70;99.90
4433;DHT22;2229;48.708;9.706;2022-11-21T00:25:05;5.80;99.90
4433;DHT22;2229;48.708;9.706;2022-11-21T00:27:33;5.70;99.90
4433;DHT22;2229;48.708;9.706;2022-11-21T00:30:00;5.70;99.90
4433;DHT22;2229;48.708;9.706;2022-11-21T00:32:28;5.80;99.90
4433;DHT22;2229;48.708;9.706;2022-11-21T00:34:56;5.80;99.90
4433;DHT22;2229;48.708;9.706;2022-11-21T00:37:23;5.80;99.90
4433;DHT22;2229;48.708;9.706;2022-11-21T00:39:50;5.80;99.90
4433;DHT22;2229;48.708;9.706;2022-11-21T00:42:17;5.80;99.90
4433;DHT22;2229;48.708;9.706;2022-11-21T00:44:44;5.80;99.90
4433;DHT22;2229;48.708;9.706;2022-11-21T00:47:11;5.80;99.90
4433;DHT22;2229;48.708;9.706;2022-11-21T00:49:40;5.80;99.90
4433;DHT22;2229;48.708;9.706;2022-11-21T00:52:07;5.80;99.90
4433;DHT22;2229;48.708;9.706;2022-11-21T00:54:34;5.80;99.90
4433;DHT22;2229;48.708;9.706;2022-11-21T00:57:11;5.70;99.90
4433;DHT22;2229;48.708;9.706;2022-11-21T00:59:38;5.70;99.90
4433;DHT22;2229;48.708;9.706;2022-11-21T01:02:05;5.70;99.90
4433;DHT22;2229;48.708;9.706;2022-11-21T01:04:33;5.70;99.90
4433;DHT22;2229;48.708;9.706;2022-11-21T01:07:02;5.60;99.90
4433;DHT22;2229;48.708;9.706;2022-11-21T01:09:29;5.70;99.90
4433;DHT22;2229;48.708;9.706;2022-11-21T01:11:56;5.70;99.90
4433;DHT22;2229;48.708;9.706;2022-11-21T01:14:23;5.60;99.90
4433;DHT22;2229;48.708;9.706;2022-11-21T01:16:50;5.70;99.90
4433;DHT22;2229;48.708;9.706;2022-11-21T01:19:17;5.70;99.90
4433;DHT22;2229;48.708;9.706;2022-11-21T01:21:44;5.70;99.90
4433;DHT22;2229;48.708;9.706;2022-11-21T01:24:13;5.70;99.90
4433;DHT22;2229;48.708;9.706;2022-11-21T01:26:40;5.70;99.90
4433;DHT22;2229;48.708;9.706;2022-11-21T01:29:07;5.70;99.90
4433;DHT22;2229;48.708;9.706;2022-11-21T01:31:35;5.70;99.90
4433;DHT22;2229;48.708;9.706;2022-11-21T01:34:02;5.70;99.90
4433;DHT22;2229;48.708;9.706;2022-11-21T01:36:30;5.70;99.90
4433;DHT22;2229;48.708;9.706;2022-11-21T01:38:59;5.70;99.90
4433;DHT22;2229;48.708;9.706;2022-11-21T01:41:29;5.70;99.90
4433;DHT22;2229;48.708;9.706;2022-11-21T01:43:58;5.80;99.90
4433;DHT22;2229;48.708;9.706;2022-11-21T01:46:26;5.80;99.90
4433;DHT22;2229;48.708;9.706;2022-11-21T01:48:55;5.80;99.90
4433;DHT22;2229;48.708;9.706;2022-11-21T01:51:27;5.90;99.90
4433;DHT22;2229;48.708;9.706;2022-11-21T01:54:00;5.90;99.90
4433;DHT22;2229;48.708;9.706;2022-11-21T01:56:33;6.00;99.90
4433;DHT22;2229;48.708;9.706;2022-11-21T01:59:04;6.00;99.90
4433;DHT22;2229;48.708;9.706;2022-11-21T02:01:34;6.00;99.90
4433;DHT22;2229;48.708;9.706;2022-11-21T02:04:02;6.00;99.90
4433;DHT22;2229;48.708;9.706;2022-11-21T02:06:31;6.00;99.90
4433;DHT22;2229;48.708;9.706;2022-11-21T02:08:59;6.00;99.90
4433;DHT22;2229;48.708;9.706;2022-11-21T02:11:31;6.00;99.90
4433;DHT22;2229;48.708;9.706;2022-11-21T02:14:21;6.00;99.90
4433;DHT22;2229;48.708;9.706;2022-11-21T02:16:49;5.90;99.90
4433;DHT22;2229;48.708;9.706;2022-11-21T02:19:22;5.90;99.90
4433;DHT22;2229;48.708;9.706;2022-11-21T02:21:59;5.90;99.90
4433;DHT22;2229;48.708;9.706;2022-11-21T02:24:40;5.90;99.90
4433;DHT22;2229;48.708;9.706;2022-11-21T02:27:11;5.90;99.90
4433;DHT22;2229;48.708;9.706;2022-11-21T02:29:38;5.80;99.90
4433;DHT22;2229;48.708;9.706;2022-11-21T02:32:06;5.80;99.90
4433;DHT22;2229;48.708;9.706;2022-11-21T02:34:33;5.80;99.90
4433;DHT22;2229;48.708;9.706;2022-11-21T02:37:01;5.70;99.90
4433;DHT22;2229;48.708;9.706;2022-11-21T02:39:32;5.60;99.90
4433;DHT22;2229;48.708;9.706;2022-11-21T02:42:05;5.60;99.90
4433;DHT22;2229;48.708;9.706;2022-11-21T02:44:48;5.60;99.90
4433;DHT22;2229;48.708;9.706;2022-11-21T02:47:19;5.50;99.90
4433;DHT22;2229;48.708;9.706;2022-11-21T02:49:52;5.50;99.90
4433;DHT22;2229;48.708;9.706;2022-11-21T02:52:21;5.50;99.90
4433;DHT22;2229;48.708;9.706;2022-11-21T02:54:48;5.50;99.90
4433;DHT22;2229;48.708;9.706;2022-11-21T02:57:15;5.50;99.90
4433;DHT22;2229;48.708;9.706;2022-11-21T02:59:44;5.50;99.90
4433;DHT22;2229;48.708;9.706;2022-11-21T03:02:11;5.50;99.90
4433;DHT22;2229;48.708;9.706;2022-11-21T03:04:38;5.40;99.90
4433;DHT22;2229;48.708;9.706;2022-11-21T03:07:05;5.50;99.90
4433;DHT22;2229;48.708;9.706;2022-11-21T03:09:32;5.50;99.90
4433;DHT22;2229;48.708;9.706;2022-11-21T03:12:04;5.40;99.90
4433;DHT22;2229;48.708;9.706;2022-11-21T03:14:31;5.40;99.90
4433;DHT22;2229;48.708;9.706;2022-11-21T03:17:00;5.40;99.90
4433;DHT22;2229;48.708;9.706;2022-11-21T03:19:28;5.40;99.90
4433;DHT22;2229;48.708;9.706;2022-11-21T03:21:56;5.40;99.90
4433;DHT22;2229;48.708;9.706;2022-11-21T03:24:23;5.40;99.90
4433;DHT22;2229;48.708;9.706;2022-11-21T03:27:00;5.40;99.90
4433;DHT22;2229;48.708;9.706;2022-11-21T03:29:27;5.40;99.90
4433;DHT22;2229;48.708;9.706;2022-11-21T03:31:54;5.40;99.90
4433;DHT22;2229;48.708;9.706;2022-11-21T03:34:23;5.40;99.90
4433;DHT22;2229;48.708;9.706;2022-11-21T03:36:50;5.40;99.90
4433;DHT22;2229;48.708;9.706;2022-11-21T03:39:17;5.40;99.90
4433;DHT22;2229;48.708;9.706;2022-11-21T03:41:45;5.50;99.90
4433;DHT22;2229;48.708;9.706;2022-11-21T03:44:12;5.50;99.90
4433;DHT22;2229;48.708;9.706;2022-11-21T03:46:42;5.50;99.90
4433;DHT22;2229;48.708;9.706;2022-11-21T03:49:09;5.50;99.90
4433;DHT22;2229;48.708;9.706;2022-11-21T03:51:38;5.50;99.90
4433;DHT22;2229;48.708;9.706;2022-11-21T03:54:06;5.50;99.90
4433;DHT22;2229;48.708;9.706;2022-11-21T03:56:34;5.50;99.90
4433;DHT22;2229;48.708;9.706;2022-11-21T03:59:02;5.50;99.90
4433;DHT22;2229;48.708;9.706;2022-11-21T04:01:29;5.50;99.90
4433;DHT22;2229;48.708;9.706;2022-11-21T04:03:57;5.50;99.90
4433;DHT22;2229;48.708;9.706;2022-11-21T04:06:24;5.50;99.90
4433;DHT22;2229;48.708;9.706;2022-11-21T04:08:53;5.50;99.90
4433;DHT22;2229;48.708;9.706;2022-11-21T04:11:20;5.60;99.90
4433;DHT22;2229;48.708;9.706;2022-11-21T04:13:49;5.60;99.90
4433;DHT22;2229;48.708;9.706;2022-11-21T04:16:36;5.60;99.90
4433;DHT22;2229;48.708;9.706;2022-11-21T04:19:03;5.50;99.90
4433;DHT22;2229;48.708;9.706;2022-11-21T04:21:30;5.60;99.90
4433;DHT22;2229;48.708;9.706;2022-11-21T04:24:01;5.60;99.90
4433;DHT22;2229;48.708;9.706;2022-11-21T04:26:28;5.60;99.90
4433;DHT22;2229;48.708;9.706;2022-11-21T04:28:56;5.60;99.90
4433;DHT22;2229;48.708;9.706;2022-11-21T04:31:24;5.60;99.90
4433;DHT22;2229;48.708;9.706;2022-11-21T04:33:51;5.60;99.90
4433;DHT22;2229;48.708;9.706;2022-11-21T04:36:18;5.60;99.90
4433;DHT22;2229;48.708;9.706;2022-11-21T04:38:45;5.70;99.90
4433;DHT22;2229;48.708;9.706;2022-11-21T04:41:18;5.70;99.90
4433;DHT22;2229;48.708;9.706;2022-11-21T04:43:45;5.70;99.90
4433;DHT22;2229;48.708;9.706;2022-11-21T04:46:12;5.70;99.90
4433;DHT22;2229;48.708;9.706;2022-11-21T04:48:40;5.70;99.90
4433;DHT22;2229;48.708;9.706;2022-11-21T04:51:07;5.70;99.90
4433;DHT22;2229;48.708;9.706;2022-11-21T04:53:34;5.70;99.90
4433;DHT22;2229;48.708;9.706;2022-11-21T04:56:03;5.70;99.90
4433;DHT22;2229;48.708;9.706;2022-11-21T04:58:31;5.70;99.90
4433;DHT22;2229;48.708;9.706;2022-11-21T05:01:05;5.70;99.90
4433;DHT22;2229;48.708;9.706;2022-11-21T05:03:32;5.70;99.90
4433;DHT22;2229;48.708;9.706;2022-11-21T05:06:00;5.60;99.90
4433;DHT22;2229;48.708;9.706;2022-11-21T05:08:27;5.60;99.90
4433;DHT22;2229;48.708;9.706;2022-11-21T05:10:54;5.60;99.90
4433;DHT22;2229;48.708;9.706;2022-11-21T05:13:40;5.60;99.90
4433;DHT22;2229;48.708;9.706;2022-11-21T05:16:07;5.60;99.90
4433;DHT22;2229;48.708;9.706;2022-11-21T05:18:35;5.70;99.90
4433;DHT22;2229;48.708;9.706;2022-11-21T05:21:02;5.60;99.90
4433;DHT22;2229;48.708;9.706;2022-11-21T05:23:30;5.70;99.90
4433;DHT22;2229;48.708;9.706;2022-11-21T05:25:57;5.60;99.90
4433;DHT22;2229;48.708;9.706;2022-11-21T05:28:24;5.60;99.90
4433;DHT22;2229;48.708;9.706;2022-11-21T05:30:52;5.60;99.90
4433;DHT22;2229;48.708;9.706;2022-11-21T05:33:19;5.60;99.90
4433;DHT22;2229;48.708;9.706;2022-11-21T05:35:47;5.60;99.90
4433;DHT22;2229;48.708;9.706;2022-11-21T05:38:14;5.60;99.90
4433;DHT22;2229;48.708;9.706;2022-11-21T05:40:42;5.60;99.90
4433;DHT22;2229;48.708;9.706;2022-11-21T05:43:10;5.60;99.90
4433;DHT22;2229;48.708;9.706;2022-11-21T05:45:56;5.60;99.90
4433;DHT22;2229;48.708;9.706;2022-11-21T05:48:23;5.60;99.90
4433;DHT22;2229;48.708;9.706;2022-11-21T05:50:51;5.50;99.90
4433;DHT22;2229;48.708;9.706;2022-11-21T05:53:18;5.50;99.90
4433;DHT22;2229;48.708;9.706;2022-11-21T05:55:45;5.40;99.90
4433;DHT22;2229;48.708;9.706;2022-11-21T05:58:13;5.40;99.90
4433;DHT22;2229;48.708;9.706;2022-11-21T06:00:43;5.40;99.90
4433;DHT22;2229;48.708;9.706;2022-11-21T06:03:12;5.50;99.90
4433;DHT22;2229;48.708;9.706;2022-11-21T06:05:58;5.60;99.90
4433;DHT22;2229;48.708;9.706;2022-11-21T06:08:25;5.60;99.90
4433;DHT22;2229;48.708;9.706;2022-11-21T06:10:53;5.60;99.90
4433;DHT22;2229;48.708;9.706;2022-11-21T06:13:20;5.50;99.90
4433;DHT22;2229;48.708;9.706;2022-11-21T06:15:49;5.50;99.90
4433;DHT22;2229;48.708;9.706;2022-11-21T06:18:18;5.50;99.90
4433;DHT22;2229;48.708;9.706;2022-11-21T06:20:45;5.50;99.90
4433;DHT22;2229;48.708;9.706;2022-11-21T06:23:13;5.50;99.90
4433;DHT22;2229;48.708;9.706;2022-11-21T06:25:41;5.50;99.90
4433;DHT22;2229;48.708;9.706;2022-11-21T06:28:08;5.50;99.90
4433;DHT22;2229;48.708;9.706;2022-11-21T06:30:35;5.40;99.90
4433;DHT22;2229;48.708;9.706;2022-11-21T06:33:04;5.40;99.90
4433;DHT22;2229;48.708;9.706;2022-11-21T06:35:36;5.40;99.90
4433;DHT22;2229;48.708;9.706;2022-11-21T06:38:04;5.40;99.90
4433;DHT22;2229;48.708;9.706;2022-11-21T06:40:31;5.30;99.90
4433;DHT22;2229;48.708;9.706;2022-11-21T06:43:02;5.30;99.90
4433;DHT22;2229;48.708;9.706;2022-11-21T06:45:29;5.40;99.90
4433;DHT22;2229;48.708;9.706;2022-11-21T06:47:56;5.40;99.90
4433;DHT22;2229;48.708;9.706;2022-11-21T06:50:23;5.40;99.90
4433;DHT22;2229;48.708;9.706;2022-11-21T06:52:51;5.40;99.90
4433;DHT22;2229;48.708;9.706;2022-11-21T06:55:19;5.40;99.90
4433;DHT22;2229;48.708;9.706;2022-11-21T06:57:48;5.40;99.90
4433;DHT22;2229;48.708;9.706;2022-11-21T07:00:16;5.30;99.90
4433;DHT22;2229;48.708;9.706;2022-11-21T07:02:43;5.40;99.90
4433;DHT22;2229;48.708;9.706;2022-11-21T07:05:10;5.40;99.90
4433;DHT22;2229;48.708;9.706;2022-11-21T07:07:48;5.40;99.90
4433;DHT22;2229;48.708;9.706;2022-11-21T07:10:17;5.40;99.90
4433;DHT22;2229;48.708;9.706;2022-11-21T07:12:44;5.40;99.90
4433;DHT22;2229;48.708;9.706;2022-11-21T07:15:29;5.40;99.90
4433;DHT22;2229;48.708;9.706;2022-11-21T07:17:57;5.50;99.90
4433;DHT22;2229;48.708;9.706;2022-11-21T07:20:24;5.50;99.90
4433;DHT22;2229;48.708;9.706;2022-11-21T07:22:52;5.50;99.90
4433;DHT22;2229;48.708;9.706;2022-11-21T07:25:22;5.50;99.90
4433;DHT22;2229;48.708;9.706;2022-11-21T07:27:49;5.50;99.90
4433;DHT22;2229;48.708;9.706;2022-11-21T07:30:16;5.60;99.90
4433;DHT22;2229;48.708;9.706;2022-11-21T07:32:43;5.60;99.90
4433;DHT22;2229;48.708;9.706;2022-11-21T07:35:10;5.70;99.90
4433;DHT22;2229;48.708;9.706;2022-11-21T07:37:38;5.70;99.90
4433;DHT22;2229;48.708;9.706;2022-11-21T07:40:10;5.80;99.90
4433;DHT22;2229;48.708;9.706;2022-11-21T07:42:39;5.80;99.90
4433;DHT22;2229;48.708;9.706;2022-11-21T07:45:07;6.00;99.90
4433;DHT22;2229;48.708;9.706;2022-11-21T07:47:37;6.10;99.90
4433;DHT22;2229;48.708;9.706;2022-11-21T07:50:06;6.40;99.90
4433;DHT22;2229;48.708;9.706;2022-11-21T07:52:34;6.70;99.90
4433;DHT22;2229;48.708;9.706;2022-11-21T07:55:02;7.10;99.90
4433;DHT22;2229;48.708;9.706;2022-11-21T07:57:31;7.60;99.90
4433;DHT22;2229;48.708;9.706;2022-11-21T08:00:00;8.10;99.90
4433;DHT22;2229;48.708;9.706;2022-11-21T08:02:30;8.60;99.90
4433;DHT22;2229;48.708;9.706;2022-11-21T08:04:57;9.10;99.90
4433;DHT22;2229;48.708;9.706;2022-11-21T08:07:24;9.40;99.90
4433;DHT22;2229;48.708;9.706;2022-11-21T08:09:51;9.70;99.90
4433;DHT22;2229;48.708;9.706;2022-11-21T08:12:19;10.10;99.90
4433;DHT22;2229;48.708;9.706;2022-11-21T08:14:46;11.00;99.90
4433;DHT22;2229;48.708;9.706;2022-11-21T08:17:17;12.00;99.90
4433;DHT22;2229;48.708;9.706;2022-11-21T08:19:45;13.20;98.50
4433;DHT22;2229;48.708;9.706;2022-11-21T08:22:12;14.40;95.90
4433;DHT22;2229;48.708;9.706;2022-11-21T08:24:39;15.30;93.00
4433;DHT22;2229;48.708;9.706;2022-11-21T08:27:07;16.00;90.20
4433;DHT22;2229;48.708;9.706;2022-11-21T08:29:34;16.60;87.20
4433;DHT22;2229;48.708;9.706;2022-11-21T08:32:01;16.80;83.20
4433;DHT22;2229;48.708;9.706;2022-11-21T08:34:31;16.90;80.10
4433;DHT22;2229;48.708;9.706;2022-11-21T08:36:58;17.20;77.50
4433;DHT22;2229;48.708;9.706;2022-11-21T08:39:27;17.30;75.30
4433;DHT22;2229;48.708;9.706;2022-11-21T08:41:56;17.40;75.30
4433;DHT22;2229;48.708;9.706;2022-11-21T08:44:29;17.30;74.50
4433;DHT22;2229;48.708;9.706;2022-11-21T08:46:56;17.30;73.10
4433;DHT22;2229;48.708;9.706;2022-11-21T08:49:24;17.60;72.30
4433;DHT22;2229;48.708;9.706;2022-11-21T08:51:53;18.20;71.80
4433;DHT22;2229;48.708;9.706;2022-11-21T08:54:22;19.00;69.10
4433;DHT22;2229;48.708;9.706;2022-11-21T08:57:12;19.80;66.60
4433;DHT22;2229;48.708;9.706;2022-11-21T08:59:40;20.50;63.60
4433;DHT22;2229;48.708;9.706;2022-11-21T09:02:09;21.20;62.10
4433;DHT22;2229;48.708;9.706;2022-11-21T09:04:36;21.80;59.60
4433;DHT22;2229;48.708;9.706;2022-11-21T09:07:05;22.30;58.80
4433;DHT22;2229;48.708;9.706;2022-11-21T09:09:32;22.30;57.00
4433;DHT22;2229;48.708;9.706;2022-11-21T09:12:00;21.50;56.90
4433;DHT22;2229;48.708;9.706;2022-11-21T09:14:28;20.00;57.20
4433;DHT22;2229;48.708;9.706;2022-11-21T09:17:13;18.40;58.90
4433;DHT22;2229;48.708;9.706;2022-11-21T09:19:58;17.00;61.30
4433;DHT22;2229;48.708;9.706;2022-11-21T09:22:27;16.60;64.00
4433;DHT22;2229;48.708;9.706;2022-11-21T09:24:54;16.80;64.40
4433;DHT22;2229;48.708;9.706;2022-11-21T09:27:22;16.90;63.90
4433;DHT22;2229;48.708;9.706;2022-11-21T09:29:49;16.90;63.90
4433;DHT22;2229;48.708;9.706;2022-11-21T09:32:16;16.90;64.60
4433;DHT22;2229;48.708;9.706;2022-11-21T09:34:44;17.40;65.10
4433;DHT22;2229;48.708;9.706;2022-11-21T09:37:11;18.40;63.70
4433;DHT22;2229;48.708;9.706;2022-11-21T09:39:59;19.30;62.30
4433;DHT22;2229;48.708;9.706;2022-11-21T09:45:24;21.40;59.40
4433;DHT22;2229;48.708;9.706;2022-11-21T09:47:54;22.00;57.30
4433;DHT22;2229;48.708;9.706;2022-11-21T09:50:27;22.80;57.60
4433;DHT22;2229;48.708;9.706;2022-11-21T09:52:59;23.10;55.20
4433;DHT22;2229;48.708;9.706;2022-11-21T09:55:36;22.20;53.70
4433;DHT22;2229;48.708;9.706;2022-11-21T09:58:13;20.60;54.90
4433;DHT22;2229;48.708;9.706;2022-11-21T10:00:41;18.70;55.90
4433;DHT22;2229;48.708;9.706;2022-11-21T10:03:10;17.10;58.00
4433;DHT22;2229;48.708;9.706;2022-11-21T10:05:42;15.80;60.20
4433;DHT22;2229;48.708;9.706;2022-11-21T10:08:16;14.70;62.30
4433;DHT22;2229;48.708;9.706;2022-11-21T10:10:54;13.70;65.00
4433;DHT22;2229;48.708;9.706;2022-11-21T10:13:31;12.90;67.30
4433;DHT22;2229;48.708;9.706;2022-11-21T10:16:13;12.30;68.90
4433;DHT22;2229;48.708;9.706;2022-11-21T10:19:13;11.80;70.00
4433;DHT22;2229;48.708;9.706;2022-11-21T10:22:09;11.30;71.70
4433;DHT22;2229;48.708;9.706;2022-11-21T10:24:44;10.80;72.90
4433;DHT22;2229;48.708;9.706;2022-11-21T10:27:18;10.40;74.30
4433;DHT22;2229;48.708;9.706;2022-11-21T10:29:52;10.10;75.50
4433;DHT22;2229;48.708;9.706;2022-11-21T10:32:23;9.90;77.50
4433;DHT22;2229;48.708;9.706;2022-11-21T10:34:57;9.80;78.10
4433;DHT22;2229;48.708;9.706;2022-11-21T10:37:31;9.80;79.20
4433;DHT22;2229;48.708;9.706;2022-11-21T10:40:09;9.70;80.00
4433;DHT22;2229;48.708;9.706;2022-11-21T10:42:46;9.70;81.00
4433;DHT22;2229;48.708;9.706;2022-11-21T10:45:17;9.80;82.00
4433;DHT22;2229;48.708;9.706;2022-11-21T10:47:45;10.40;83.40
4433;DHT22;2229;48.708;9.706;2022-11-21T10:50:31;11.40;83.20
4433;DHT22;2229;48.708;9.706;2022-11-21T10:53:09;12.20;81.00
4433;DHT22;2229;48.708;9.706;2022-11-21T10:56:09;12.40;78.80
4433;DHT22;2229;48.708;9.706;2022-11-21T10:58:44;12.40;77.60
4433;DHT22;2229;48.708;9.706;2022-11-21T11:01:24;12.40;77.50
4433;DHT22;2229;48.708;9.706;2022-11-21T11:04:26;12.40;76.20
4433;DHT22;2229;48.708;9.706;2022-11-21T11:06:54;12.30;76.50
4433;DHT22;2229;48.708;9.706;2022-11-21T11:09:24;12.40;76.40
4433;DHT22;2229;48.708;9.706;2022-11-21T11:11:53;12.50;77.00
4433;DHT22;2229;48.708;9.706;2022-11-21T11:14:49;12.60;76.70
4433;DHT22;2229;48.708;9.706;2022-11-21T11:17:25;12.70;75.50
4433;DHT22;2229;48.708;9.706;2022-11-21T11:20:02;12.50;74.30
4433;DHT22;2229;48.708;9.706;2022-11-21T11:22:29;12.20;74.90
4433;DHT22;2229;48.708;9.706;2022-11-21T11:24:57;11.90;75.50
4433;DHT22;2229;48.708;9.706;2022-11-21T11:27:28;11.50;75.30
4433;DHT22;2229;48.708;9.706;2022-11-21T11:30:05;11.10;75.30
4433;DHT22;2229;48.708;9.706;2022-11-21T11:32:32;10.80;76.50
4433;DHT22;2229;48.708;9.706;2022-11-21T11:35:15;10.70;77.60
4433;DHT22;2229;48.708;9.706;2022-11-21T11:37:54;10.70;78.10
4433;DHT22;2229;48.708;9.706;2022-11-21T11:40:29;10.90;78.50
4433;DHT22;2229;48.708;9.706;2022-11-21T11:43:14;11.20;78.70
4433;DHT22;2229;48.708;9.706;2022-11-21T11:46:27;11.60;77.40
4433;DHT22;2229;48.708;9.706;2022-11-21T11:49:27;12.10;77.00
4433;DHT22;2229;48.708;9.706;2022-11-21T11:52:16;12.50;76.00
4433;DHT22;2229;48.708;9.706;2022-11-21T11:54:47;12.90;74.80
4433;DHT22;2229;48.708;9.706;2022-11-21T11:57:16;13.00;74.10
4433;DHT22;2229;48.708;9.706;2022-11-21T11:59:47;12.90;72.80
4433;DHT22;2229;48.708;9.706;2022-11-21T12:02:21;12.70;73.00
4433;DHT22;2229;48.708;9.706;2022-11-21T12:04:52;12.40;72.20
4433;DHT22;2229;48.708;9.706;2022-11-21T12:07:23;12.20;73.10
4433;DHT22;2229;48.708;9.706;2022-11-21T12:10:32;12.00;72.80
4433;DHT22;2229;48.708;9.706;2022-11-21T12:13:04;11.70;73.40
4433;DHT22;2229;48.708;9.706;2022-11-21T12:15:39;11.50;73.10
4433;DHT22;2229;48.708;9.706;2022-11-21T12:18:25;11.30;73.60
4433;DHT22;2229;48.708;9.706;2022-11-21T12:20:58;11.30;74.50
4433;DHT22;2229;48.708;9.706;2022-11-21T12:23:31;11.30;75.30
4433;DHT22;2229;48.708;9.706;2022-11-21T12:26:11;11.40;75.90
4433;DHT22;2229;48.708;9.706;2022-11-21T12:28:55;11.40;76.10
4433;DHT22;2229;48.708;9.706;2022-11-21T12:31:31;11.50;74.40
4433;DHT22;2229;48.708;9.706;2022-11-21T12:34:12;11.40;72.40
4433;DHT22;2229;48.708;9.706;2022-11-21T12:36:46;11.40;73.90
4433;DHT22;2229;48.708;9.706;2022-11-21T12:39:49;11.40;74.00
4433;DHT22;2229;48.708;9.706;2022-11-21T12:42:26;11.40;74.00
4433;DHT22;2229;48.708;9.706;2022-11-21T12:45:23;11.40;73.60
4433;DHT22;2229;48.708;9.706;2022-11-21T12:48:14;11.30;72.90
4433;DHT22;2229;48.708;9.706;2022-11-21T12:51:23;11.10;73.30
4433;DHT22;2229;48.708;9.706;2022-11-21T12:54:26;10.90;73.90
4433;DHT22;2229;48.708;9.706;2022-11-21T12:57:04;10.70;73.90
4433;DHT22;2229;48.708;9.706;2022-11-21T12:59:41;10.50;74.30
4433;DHT22;2229;48.708;9.706;2022-11-21T13:02:22;10.30;74.80
4433;DHT22;2229;48.708;9.706;2022-11-21T13:04:54;10.20;75.40
4433;DHT22;2229;48.708;9.706;2022-11-21T13:07:26;10.10;76.00
4433;DHT22;2229;48.708;9.706;2022-11-21T13:10:00;10.10;76.30
4433;DHT22;2229;48.708;9.706;2022-11-21T13:12:35;10.10;77.10
4433;DHT22;2229;48.708;9.706;2022-11-21T13:15:15;10.10;77.80
4433;DHT22;2229;48.708;9.706;2022-11-21T13:17:47;10.30;77.80
4433;DHT22;2229;48.708;9.706;2022-11-21T13:20:21;10.40;77.60
4433;DHT22;2229;48.708;9.706;2022-11-21T13:22:53;10.60;77.40
4433;DHT22;2229;48.708;9.706;2022-11-21T13:25:43;10.90;76.70
4433;DHT22;2229;48.708;9.706;2022-11-21T13:28:33;11.10;76.00
4433;DHT22;2229;48.708;9.706;2022-11-21T13:31:14;11.40;75.10
4433;DHT22;2229;48.708;9.706;2022-11-21T13:33:53;11.60;74.70
4433;DHT22;2229;48.708;9.706;2022-11-21T13:36:39;11.70;73.10
4433;DHT22;2229;48.708;9.706;2022-11-21T13:39:37;11.80;71.80
4433;DHT22;2229;48.708;9.706;2022-11-21T13:42:09;11.80;71.30
4433;DHT22;2229;48.708;9.706;2022-11-21T13:44:54;11.80;72.30
4433;DHT22;2229;48.708;9.706;2022-11-21T13:50:34;11.90;70.80
4433;DHT22;2229;48.708;9.706;2022-11-21T13:53:14;11.90;70.90
4433;DHT22;2229;48.708;9.706;2022-11-21T13:55:55;11.90;70.50
4433;DHT22;2229;48.708;9.706;2022-11-21T13:58:45;11.80;69.90
4433;DHT22;2229;48.708;9.706;2022-11-21T14:01:33;11.90;69.90
4433;DHT22;2229;48.708;9.706;2022-11-21T14:04:22;11.90;69.80
4433;DHT22;2229;48.708;9.706;2022-11-21T14:06:52;11.90;68.60
4433;DHT22;2229;48.708;9.706;2022-11-21T14:09:22;11.90;69.00
4433;DHT22;2229;48.708;9.706;2022-11-21T14:11:54;11.90;68.90
4433;DHT22;2229;48.708;9.706;2022-11-21T14:14:42;11.80;68.90
4433;DHT22;2229;48.708;9.706;2022-11-21T14:20:12;11.50;69.40
4433;DHT22;2229;48.708;9.706;2022-11-21T14:22:42;11.40;69.50
4433;DHT22;2229;48.708;9.706;2022-11-21T14:25:15;11.30;69.50
4433;DHT22;2229;48.708;9.706;2022-11-21T14:27:47;11.20;70.20
4433;DHT22;2229;48.708;9.706;2022-11-21T14:30:27;11.10;70.00
4433;DHT22;2229;48.708;9.706;2022-11-21T14:32:55;11.10;70.30
4433;DHT22;2229;48.708;9.706;2022-11-21T14:35:23;11.00;70.10
4433;DHT22;2229;48.708;9.706;2022-11-21T14:37:51;10.80;70.40
4433;DHT22;2229;48.708;9.706;2022-11-21T14:40:21;10.70;71.00
4433;DHT22;2229;48.708;9.706;2022-11-21T14:42:50;10.60;71.30
4433;DHT22;2229;48.708;9.706;2022-11-21T14:45:19;10.50;71.20
4433;DHT22;2229;48.708;9.706;2022-11-21T14:48:26;10.40;71.60
4433;DHT22;2229;48.708;9.706;2022-11-21T14:50:55;10.20;72.20
4433;DHT22;2229;48.708;9.706;2022-11-21T14:53:24;10.10;72.80
4433;DHT22;2229;48.708;9.706;2022-11-21T14:55:52;9.90;74.30
4433;DHT22;2229;48.708;9.706;2022-11-21T14:58:21;9.80;75.00
4433;DHT22;2229;48.708;9.706;2022-11-21T15:01:02;9.60;75.50
4433;DHT22;2229;48.708;9.706;2022-11-21T15:03:29;9.50;76.00
4433;DHT22;2229;48.708;9.706;2022-11-21T15:06:01;9.40;76.30
4433;DHT22;2229;48.708;9.706;2022-11-21T15:08:28;9.20;76.70
4433;DHT22;2229;48.708;9.706;2022-11-21T15:10:57;9.10;77.40
4433;DHT22;2229;48.708;9.706;2022-11-21T15:13:54;9.00;77.80
4433;DHT22;2229;48.708;9.706;2022-11-21T15:16:22;8.80;78.40
4433;DHT22;2229;48.708;9.706;2022-11-21T15:18:50;8.70;78.70
4433;DHT22;2229;48.708;9.706;2022-11-21T15:21:17;8.50;79.10
4433;DHT22;2229;48.708;9.706;2022-11-21T15:23:44;8.40;79.60
4433;DHT22;2229;48.708;9.706;2022-11-21T15:26:27;8.30;80.00
4433;DHT22;2229;48.708;9.706;2022-11-21T15:28:58;8.20;80.50
4433;DHT22;2229;48.708;9.706;2022-11-21T15:31:26;8.10;81.00
4433;DHT22;2229;48.708;9.706;2022-11-21T15:33:57;7.90;81.50
4433;DHT22;2229;48.708;9.706;2022-11-21T15:36:25;7.80;82.10
4433;DHT22;2229;48.708;9.706;2022-11-21T15:38:55;7.70;82.50
4433;DHT22;2229;48.708;9.706;2022-11-21T15:41:28;7.60;83.10
4433;DHT22;2229;48.708;9.706;2022-11-21T15:44:17;7.50;84.10
4433;DHT22;2229;48.708;9.706;2022-11-21T15:46:45;7.40;84.80
4433;DHT22;2229;48.708;9.706;2022-11-21T15:49:13;7.30;84.60
4433;DHT22;2229;48.708;9.706;2022-11-21T15:51:48;7.20;84.80
4433;DHT22;2229;48.708;9.706;2022-11-21T15:54:17;7.10;85.20
4433;DHT22;2229;48.708;9.706;2022-11-21T15:56:45;7.00;85.60
4433;DHT22;2229;48.708;9.706;2022-11-21T15:59:13;7.00;85.80
4433;DHT22;2229;48.708;9.706;2022-11-21T16:01:42;6.90;85.90
4433;DHT22;2229;48.708;9.706;2022-11-21T16:04:11;6.90;86.20
4433;DHT22;2229;48.708;9.706;2022-11-21T16:06:39;6.80;86.50
4433;DHT22;2229;48.708;9.706;2022-11-21T16:09:06;6.80;87.10
4433;DHT22;2229;48.708;9.706;2022-11-21T16:11:37;6.60;87.10
4433;DHT22;2229;48.708;9.706;2022-11-21T16:14:06;6.60;87.50
4433;DHT22;2229;48.708;9.706;2022-11-21T16:16:36;6.50;87.70
4433;DHT22;2229;48.708;9.706;2022-11-21T16:19:05;6.50;88.10
4433;DHT22;2229;48.708;9.706;2022-11-21T16:21:33;6.40;88.30
4433;DHT22;2229;48.708;9.706;2022-11-21T16:24:20;6.30;88.60
4433;DHT22;2229;48.708;9.706;2022-11-21T16:26:47;6.30;88.90
4433;DHT22;2229;48.708;9.706;2022-11-21T16:29:18;6.20;89.20
4433;DHT22;2229;48.708;9.706;2022-11-21T16:31:46;6.10;89.40
4433;DHT22;2229;48.708;9.706;2022-11-21T16:34:21;6.10;89.80
4433;DHT22;2229;48.708;9.706;2022-11-21T16:36:49;6.00;90.00
4433;DHT22;2229;48.708;9.706;2022-11-21T16:39:16;6.00;90.10
4433;DHT22;2229;48.708;9.706;2022-11-21T16:41:43;5.90;90.10
4433;DHT22;2229;48.708;9.706;2022-11-21T16:44:13;5.90;90.20
4433;DHT22;2229;48.708;9.706;2022-11-21T16:46:42;5.80;90.30
4433;DHT22;2229;48.708;9.706;2022-11-21T16:49:21;5.80;90.40
4433;DHT22;2229;48.708;9.706;2022-11-21T16:51:49;5.80;90.60